Kendall Alyse — WDE4829 — position and weather

sailwx.info

Track history (hours):
 
Tides and Currents Weather Stations Pressure Air Temp Water Temp Dewpoint Dewpoint Depression Visibility Wind Speed Wind Dir Waves Ship Positions

Kendall Alyse

Owner: The Tug Kendall Alyse, L.L.C., Sugar Land, TX. More information available from US FCC via Universal Licensing System and Coast Guard Vessel Documentation Center.

Last reported at 2018-Jul-20 07:59 UTC. Time now 2018-Jul-20 08:24 UTC.
Position N 29°45' W 095°04'.

Length 20 m.

MMSI: 357358340.

Date/timePositionNaut miles runAvg speedWind from/ knotsBaromVisibWave heightAir tempDewpointWater temp
2018-Jul-20 07:59N 29°45' W 095°04'2 5.1
2018-Jul-20 07:30N 29°44' W 095°01'0 0.0
2018-Jul-20 07:00N 29°44' W 095°01'0 0.0
2018-Jul-20 06:25N 29°44' W 095°01'0 0.0
2018-Jul-20 06:00N 29°44' W 095°01'1 1.2
2018-Jul-20 05:29N 29°43' W 095°01'0 0.0
2018-Jul-20 04:59N 29°43' W 095°01'0 0.5
2018-Jul-20 04:31N 29°44' W 095°01'3 5.4
2018-Jul-20 04:00N 29°45' W 095°04'2 4.1
2018-Jul-20 03:30N 29°47' W 095°04'0 0.4
2018-Jul-20 03:00N 29°47' W 095°04'0 0.7
2018-Jul-20 02:28N 29°47' W 095°04'2 0.4
2018-Jul-19 20:59N 29°46' W 095°06'3 5.9
2018-Jul-19 20:27N 29°44' W 095°03'2 0.4
2018-Jul-19 16:15N 29°44' W 095°01'2 5.9
2018-Jul-19 15:59N 29°44' W 095°03'3 5.5
2018-Jul-19 15:25N 29°47' W 095°04'1 1.9
2018-Jul-19 14:55N 29°47' W 095°04'2 2.3
2018-Jul-19 13:51N 29°46' W 095°06'0 0.0
2018-Jul-19 13:23N 29°46' W 095°06'0 0.0
2018-Jul-19 12:53N 29°46' W 095°06'0 0.0
2018-Jul-19 12:28N 29°46' W 095°06'0 0.0
2018-Jul-19 11:59N 29°46' W 095°06'0 0.0
2018-Jul-19 11:30N 29°46' W 095°06'0 0.0
2018-Jul-19 10:59N 29°46' W 095°06'0 0.0
2018-Jul-19 10:30N 29°46' W 095°06'0 0.0
2018-Jul-19 10:00N 29°46' W 095°06'0 0.0
2018-Jul-19 09:30N 29°46' W 095°06'0 0.0
2018-Jul-19 08:59N 29°46' W 095°06'0 0.0
2018-Jul-19 08:24N 29°46' W 095°06'0 0.0
2018-Jul-19 08:00N 29°46' W 095°06'0 0.0
2018-Jul-19 07:30N 29°46' W 095°06'0 0.0
2018-Jul-19 07:00N 29°46' W 095°06'0 0.0
2018-Jul-19 06:29N 29°46' W 095°06'0 0.0
2018-Jul-19 05:59N 29°46' W 095°06'0 0.0
2018-Jul-19 05:30N 29°46' W 095°06'0 0.0
2018-Jul-19 04:59N 29°46' W 095°06'0 0.0
2018-Jul-19 04:30N 29°46' W 095°06'0 0.0
2018-Jul-19 04:00N 29°46' W 095°06'0 0.0
2018-Jul-19 03:30N 29°46' W 095°06'0 0.0
2018-Jul-19 03:00N 29°46' W 095°06'0 0.0
2018-Jul-19 02:27N 29°46' W 095°06'0 0.0
2018-Jul-18 13:59N 29°46' W 095°06'0 0.0
2018-Jul-18 13:27N 29°46' W 095°06'0 0.0
2018-Jul-18 12:41N 29°46' W 095°06'0 0.0
2018-Jul-18 12:26N 29°46' W 095°06'0 0.0
2018-Jul-18 11:53N 29°46' W 095°06'0 0.0
2018-Jul-18 11:30N 29°46' W 095°06'0 0.0
2018-Jul-18 10:27N 29°46' W 095°06'0 0.0
2018-Jul-18 10:00N 29°46' W 095°06'0 0.0
2018-Jul-18 09:27N 29°46' W 095°06'0 0.0
2018-Jul-18 08:51N 29°46' W 095°06'0 0.0
2018-Jul-18 08:28N 29°46' W 095°06'2 3.7
2018-Jul-18 07:58N 29°46' W 095°04'3 5.3
2018-Jul-18 07:29N 29°44' W 095°02'1 1.2
2018-Jul-18 07:00N 29°44' W 095°01'0 0.0
2018-Jul-18 06:30N 29°44' W 095°01'0 0.0
2018-Jul-18 06:00N 29°44' W 095°01'0 0.0
2018-Jul-18 05:28N 29°44' W 095°01'0 0.0
2018-Jul-18 05:01N 29°44' W 095°01'0 0.0
2018-Jul-18 04:28N 29°44' W 095°01'0 0.0
2018-Jul-18 03:57N 29°44' W 095°01'0 0.0
2018-Jul-18 03:30N 29°44' W 095°01'0 0.0
2018-Jul-18 02:55N 29°44' W 095°01'0 0.0
2018-Jul-18 02:30N 29°44' W 095°01'0 0.0
2018-Jul-17 23:59N 29°44' W 095°01'4 1.7
2018-Jul-17 21:44N 29°45' W 095°06'1 2.3
2018-Jul-17 21:30N 29°46' W 095°05'1 2.3
2018-Jul-17 20:58N 29°47' W 095°05'1 1.8
2018-Jul-17 20:25N 29°47' W 095°04'0 0.0
2018-Jul-17 19:31N 29°47' W 095°04'0 0.0
2018-Jul-17 19:19N 29°47' W 095°04'2 0.4
2018-Jul-17 13:55N 29°46' W 095°06'0 0.0
2018-Jul-17 13:09N 29°46' W 095°06'0 0.1
2018-Jul-17 13:00N 29°46' W 095°06'3 4.9
2018-Jul-17 12:27N 29°45' W 095°04'2 1.7
2018-Jul-17 11:10N 29°44' W 095°01'0 0.0
2018-Jul-17 10:56N 29°44' W 095°01'0 0.0
2018-Jul-17 10:29N 29°44' W 095°01'0 0.0
2018-Jul-17 09:57N 29°44' W 095°01'2 3.5
2018-Jul-17 09:30N 29°44' W 095°03'3 6.2
2018-Jul-17 09:00N 29°46' W 095°06'0 0.6
2018-Jul-17 08:30N 29°46' W 095°06'2 3.5
2018-Jul-17 08:00N 29°46' W 095°04'3 5.4
2018-Jul-17 07:30N 29°44' W 095°02'1 1.2
2018-Jul-17 07:00N 29°44' W 095°01'0 0.0
2018-Jul-17 06:29N 29°44' W 095°01'0 0.0
2018-Jul-17 05:59N 29°44' W 095°01'0 0.0
2018-Jul-17 05:30N 29°44' W 095°01'0 0.0
2018-Jul-17 04:59N 29°44' W 095°01'0 0.0
2018-Jul-17 04:30N 29°44' W 095°01'0 0.0
2018-Jul-17 04:00N 29°44' W 095°01'0 0.0
2018-Jul-17 03:30N 29°44' W 095°01'0 0.0
2018-Jul-17 02:49N 29°44' W 095°01'1 0.3
2018-Jul-17 00:03N 29°44' W 095°02'3 1.9
2018-Jul-16 22:14N 29°46' W 095°05'0 0.4
2018-Jul-16 21:33N 29°46' W 095°05'0 5.0
2018-Jul-16 21:29N 29°46' W 095°05'0 0.0
2018-Jul-16 20:50N 29°46' W 095°05'2 5.9
2018-Jul-16 20:30N 29°44' W 095°03'2 0.6
2018-Jul-16 17:28N 29°44' W 095°01'1 0.4
2018-Jul-16 16:07N 29°43' W 095°01'1 0.2
2018-Jul-16 13:10N 29°44' W 095°01'0 0.0
2018-Jul-16 12:57N 29°44' W 095°01'0 0.0
2018-Jul-16 09:42N 29°44' W 095°01'1 5.0
2018-Jul-16 09:30N 29°44' W 095°03'4 7.0
2018-Jul-16 08:59N 29°46' W 095°06'0 0.9
2018-Jul-16 08:29N 29°46' W 095°06'2 4.4
2018-Jul-16 08:00N 29°45' W 095°04'2 3.9
2018-Jul-16 07:30N 29°44' W 095°02'1 0.3
2018-Jul-16 03:19N 29°44' W 095°01'0 0.2
2018-Jul-16 02:42N 29°44' W 095°01'0 0.0
2018-Jul-15 23:45N 29°44' W 095°01'0 0.0
2018-Jul-15 23:28N 29°44' W 095°01'0 0.0
2018-Jul-15 22:59N 29°44' W 095°01'0 0.0
2018-Jul-15 22:27N 29°44' W 095°01'1 3.2
2018-Jul-15 22:00N 29°44' W 095°03'4 5.8
2018-Jul-15 21:24N 29°46' W 095°06'0 0.0
2018-Jul-15 20:58N 29°46' W 095°06'2 5.1
2018-Jul-15 20:30N 29°45' W 095°04'2 0.7
2018-Jul-15 16:59N 29°44' W 095°01'0 0.0
2018-Jul-15 16:30N 29°44' W 095°01'0 0.0
2018-Jul-15 15:57N 29°44' W 095°01'0 0.0
2018-Jul-15 15:30N 29°44' W 095°01'0 0.0
2018-Jul-15 14:46N 29°44' W 095°01'0 0.0
2018-Jul-15 14:19N 29°44' W 095°01'0 0.0
2018-Jul-15 13:54N 29°44' W 095°01'0 0.0
2018-Jul-15 13:29N 29°44' W 095°01'0 0.0
2018-Jul-15 13:00N 29°44' W 095°01'0 0.0
2018-Jul-15 12:30N 29°44' W 095°01'0 0.0
2018-Jul-15 11:59N 29°44' W 095°01'0 0.0
2018-Jul-15 11:29N 29°44' W 095°01'0 0.0
2018-Jul-15 11:00N 29°44' W 095°01'0 0.0
2018-Jul-15 10:30N 29°44' W 095°01'0 0.0
2018-Jul-15 09:59N 29°44' W 095°01'2 2.7
2018-Jul-15 09:21N 29°44' W 095°03'3 3.3
2018-Jul-15 08:23N 29°46' W 095°06'1 3.8
2018-Jul-15 08:00N 29°46' W 095°04'2 4.6
2018-Jul-15 07:29N 29°44' W 095°03'1 1.5
2018-Jul-15 06:43N 29°44' W 095°01'1 2.3
2018-Jul-15 06:29N 29°43' W 095°01'0 0.5
2018-Jul-15 05:59N 29°43' W 095°01'1 0.9
2018-Jul-15 05:23N 29°44' W 095°01'0 0.0
2018-Jul-15 04:47N 29°44' W 095°01'0 0.0
2018-Jul-15 03:06N 29°44' W 095°01'0 0.0
2018-Jul-14 23:38N 29°44' W 095°01'1 5.4
2018-Jul-14 23:27N 29°44' W 095°02'4 1.6
2018-Jul-14 20:59N 29°46' W 095°06'3 5.5
2018-Jul-14 20:28N 29°44' W 095°04'2 0.7
2018-Jul-14 17:36N 29°44' W 095°01'0 0.2
2018-Jul-14 16:52N 29°44' W 095°01'0 0.1
2018-Jul-14 09:57N 29°44' W 095°02'3 6.6
2018-Jul-14 09:30N 29°46' W 095°04'1 2.8
2018-Jul-14 08:59N 29°46' W 095°06'3 6.4
2018-Jul-14 08:29N 29°44' W 095°03'2 0.1
2018-Jul-13 19:17N 29°44' W 095°01'1 1.0
2018-Jul-13 18:37N 29°44' W 095°02'1 5.3
2018-Jul-13 18:24N 29°44' W 095°03'2 0.8
2018-Jul-13 15:56N 29°46' W 095°05'2 5.4
2018-Jul-13 15:30N 29°44' W 095°03'0 0.1
2018-Jul-13 11:12N 29°44' W 095°03'2 6.5
2018-Jul-13 10:52N 29°46' W 095°05'1 3.0
2018-Jul-13 10:30N 29°46' W 095°06'0 0.4
2018-Jul-13 09:49N 29°46' W 095°06'1 1.1
2018-Jul-13 08:40N 29°46' W 095°05'1 5.3
2018-Jul-13 08:30N 29°46' W 095°05'3 1.2
2018-Jul-13 06:17N 29°44' W 095°08'1 3.9
2018-Jul-13 05:54N 29°45' W 095°06'2 3.8
2018-Jul-13 05:28N 29°46' W 095°05'2 4.0
2018-Jul-13 05:00N 29°44' W 095°03'0 0.0
2018-Jul-12 22:09N 29°44' W 095°03'3 3.7
2018-Jul-12 21:12N 29°46' W 095°06'2 5.8
2018-Jul-12 20:52N 29°45' W 095°04'3 0.4
2018-Jul-12 13:12N 29°44' W 095°01'0 0.2
2018-Jul-12 12:40N 29°44' W 095°01'0 0.1
2018-Jul-12 10:04N 29°44' W 095°02'1 6.8
2018-Jul-12 09:58N 29°44' W 095°02'3 6.3
2018-Jul-12 09:30N 29°46' W 095°05'1 1.4
2018-Jul-12 08:51N 29°46' W 095°06'1 1.3
2018-Jul-12 08:01N 29°45' W 095°06'0 5.8
2018-Jul-12 07:59N 29°45' W 095°06'1 0.4
2018-Jul-12 05:46N 29°44' W 095°07'1 1.0
2018-Jul-12 04:47N 29°44' W 095°08'0 0.7
2018-Jul-12 04:27N 29°44' W 095°08'2 3.4
2018-Jul-12 03:56N 29°45' W 095°06'3 4.9
2018-Jul-12 03:26N 29°47' W 095°04'3 0.5
2018-Jul-11 21:45N 29°45' W 095°06'1 0.2
2018-Jul-11 16:09N 29°44' W 095°08'0 2.4
2018-Jul-11 15:59N 29°44' W 095°07'2 3.6
2018-Jul-11 15:29N 29°45' W 095°06'1 2.7
2018-Jul-11 14:56N 29°47' W 095°05'1 1.1
2018-Jul-11 13:50N 29°47' W 095°04'0 0.0
2018-Jul-11 13:29N 29°47' W 095°04'2 3.0
2018-Jul-11 12:52N 29°46' W 095°05'2 6.8
2018-Jul-11 12:30N 29°44' W 095°03'1 0.3
2018-Jul-11 10:17N 29°44' W 095°02'2 6.7
2018-Jul-11 09:59N 29°45' W 095°04'2 1.9
2018-Jul-11 08:42N 29°46' W 095°06'0 0.9
2018-Jul-11 08:22N 29°46' W 095°06'2 5.7
2018-Jul-11 08:00N 29°45' W 095°04'2 5.1
2018-Jul-11 07:30N 29°44' W 095°01'0 0.0
2018-Jul-11 06:59N 29°44' W 095°01'0 0.1
2018-Jul-11 03:56N 29°44' W 095°01'0 0.4
2018-Jul-11 03:21N 29°43' W 095°01'0 0.2
2018-Jul-11 02:58N 29°43' W 095°01'3 6.3
2018-Jul-11 02:26N 29°46' W 095°04'2 4.5
2018-Jul-11 02:00N 29°47' W 095°04'2 0.6
2018-Jul-10 22:05N 29°46' W 095°06'0 0.1
2018-Jul-10 21:58N 29°46' W 095°06'0 0.0
2018-Jul-10 19:07N 29°46' W 095°06'2 6.3
2018-Jul-10 18:48N 29°45' W 095°04'2 6.8
2018-Jul-10 18:30N 29°44' W 095°02'1 0.8
2018-Jul-10 17:30N 29°44' W 095°01'0 0.5
2018-Jul-10 16:59N 29°44' W 095°01'0 0.0
2018-Jul-10 15:54N 29°44' W 095°01'0 0.0
2018-Jul-10 15:30N 29°44' W 095°01'0 0.0
2018-Jul-10 15:00N 29°44' W 095°01'0 0.0
2018-Jul-10 14:30N 29°44' W 095°01'0 0.0
2018-Jul-10 14:00N 29°44' W 095°01'0 0.0
2018-Jul-10 13:30N 29°44' W 095°01'0 0.1
2018-Jul-10 12:05N 29°44' W 095°01'1 0.2
2018-Jul-10 09:36N 29°44' W 095°02'1 7.4
2018-Jul-10 09:28N 29°44' W 095°03'3 6.6
2018-Jul-10 08:59N 29°46' W 095°06'0 0.5
2018-Jul-10 08:21N 29°46' W 095°06'2 6.6
2018-Jul-10 08:00N 29°45' W 095°04'  
Track history (hours):
 
Tides and Currents Weather Stations Pressure Air Temp Water Temp Dewpoint Dewpoint Depression Visibility Wind Speed Wind Dir Waves Ship Positions

Kendall Alyse

Owner: The Tug Kendall Alyse, L.L.C., Sugar Land, TX. More information available from US FCC via Universal Licensing System and Coast Guard Vessel Documentation Center.

Last reported at 2018-Jul-20 07:59 UTC. Time now 2018-Jul-20 08:24 UTC.
Position N 29°45' W 095°04'.

Length 20 m.

MMSI: 357358340.

Date/timePositionNaut miles runAvg speedWind from/ knotsBaromVisibWave heightAir tempDewpointWater temp
2018-Jul-20 07:59N 29°45' W 095°04'2 5.1
2018-Jul-20 07:30N 29°44' W 095°01'0 0.0
2018-Jul-20 07:00N 29°44' W 095°01'0 0.0
2018-Jul-20 06:25N 29°44' W 095°01'0 0.0
2018-Jul-20 06:00N 29°44' W 095°01'1 1.2
2018-Jul-20 05:29N 29°43' W 095°01'0 0.0
2018-Jul-20 04:59N 29°43' W 095°01'0 0.5
2018-Jul-20 04:31N 29°44' W 095°01'3 5.4
2018-Jul-20 04:00N 29°45' W 095°04'2 4.1
2018-Jul-20 03:30N 29°47' W 095°04'0 0.4
2018-Jul-20 03:00N 29°47' W 095°04'0 0.7
2018-Jul-20 02:28N 29°47' W 095°04'2 0.4
2018-Jul-19 20:59N 29°46' W 095°06'3 5.9
2018-Jul-19 20:27N 29°44' W 095°03'2 0.4
2018-Jul-19 16:15N 29°44' W 095°01'2 5.9
2018-Jul-19 15:59N 29°44' W 095°03'3 5.5
2018-Jul-19 15:25N 29°47' W 095°04'1 1.9
2018-Jul-19 14:55N 29°47' W 095°04'2 2.3
2018-Jul-19 13:51N 29°46' W 095°06'0 0.0
2018-Jul-19 13:23N 29°46' W 095°06'0 0.0
2018-Jul-19 12:53N 29°46' W 095°06'0 0.0
2018-Jul-19 12:28N 29°46' W 095°06'0 0.0
2018-Jul-19 11:59N 29°46' W 095°06'0 0.0
2018-Jul-19 11:30N 29°46' W 095°06'0 0.0
2018-Jul-19 10:59N 29°46' W 095°06'0 0.0
2018-Jul-19 10:30N 29°46' W 095°06'0 0.0
2018-Jul-19 10:00N 29°46' W 095°06'0 0.0
2018-Jul-19 09:30N 29°46' W 095°06'0 0.0
2018-Jul-19 08:59N 29°46' W 095°06'0 0.0
2018-Jul-19 08:24N 29°46' W 095°06'0 0.0
2018-Jul-19 08:00N 29°46' W 095°06'0 0.0
2018-Jul-19 07:30N 29°46' W 095°06'0 0.0
2018-Jul-19 07:00N 29°46' W 095°06'0 0.0
2018-Jul-19 06:29N 29°46' W 095°06'0 0.0
2018-Jul-19 05:59N 29°46' W 095°06'0 0.0
2018-Jul-19 05:30N 29°46' W 095°06'0 0.0
2018-Jul-19 04:59N 29°46' W 095°06'0 0.0
2018-Jul-19 04:30N 29°46' W 095°06'0 0.0
2018-Jul-19 04:00N 29°46' W 095°06'0 0.0
2018-Jul-19 03:30N 29°46' W 095°06'0 0.0
2018-Jul-19 03:00N 29°46' W 095°06'0 0.0
2018-Jul-19 02:27N 29°46' W 095°06'0 0.0
2018-Jul-18 13:59N 29°46' W 095°06'0 0.0
2018-Jul-18 13:27N 29°46' W 095°06'0 0.0
2018-Jul-18 12:41N 29°46' W 095°06'0 0.0
2018-Jul-18 12:26N 29°46' W 095°06'0 0.0
2018-Jul-18 11:53N 29°46' W 095°06'0 0.0
2018-Jul-18 11:30N 29°46' W 095°06'0 0.0
2018-Jul-18 10:27N 29°46' W 095°06'0 0.0
2018-Jul-18 10:00N 29°46' W 095°06'0 0.0
2018-Jul-18 09:27N 29°46' W 095°06'0 0.0
2018-Jul-18 08:51N 29°46' W 095°06'0 0.0
2018-Jul-18 08:28N 29°46' W 095°06'2 3.7
2018-Jul-18 07:58N 29°46' W 095°04'3 5.3
2018-Jul-18 07:29N 29°44' W 095°02'1 1.2
2018-Jul-18 07:00N 29°44' W 095°01'0 0.0
2018-Jul-18 06:30N 29°44' W 095°01'0 0.0
2018-Jul-18 06:00N 29°44' W 095°01'0 0.0
2018-Jul-18 05:28N 29°44' W 095°01'0 0.0
2018-Jul-18 05:01N 29°44' W 095°01'0 0.0
2018-Jul-18 04:28N 29°44' W 095°01'0 0.0
2018-Jul-18 03:57N 29°44' W 095°01'0 0.0
2018-Jul-18 03:30N 29°44' W 095°01'0 0.0
2018-Jul-18 02:55N 29°44' W 095°01'0 0.0
2018-Jul-18 02:30N 29°44' W 095°01'0 0.0
2018-Jul-17 23:59N 29°44' W 095°01'4 1.7
2018-Jul-17 21:44N 29°45' W 095°06'1 2.3
2018-Jul-17 21:30N 29°46' W 095°05'1 2.3
2018-Jul-17 20:58N 29°47' W 095°05'1 1.8
2018-Jul-17 20:25N 29°47' W 095°04'0 0.0
2018-Jul-17 19:31N 29°47' W 095°04'0 0.0
2018-Jul-17 19:19N 29°47' W 095°04'2 0.4
2018-Jul-17 13:55N 29°46' W 095°06'0 0.0
2018-Jul-17 13:09N 29°46' W 095°06'0 0.1
2018-Jul-17 13:00N 29°46' W 095°06'3 4.9
2018-Jul-17 12:27N 29°45' W 095°04'2 1.7
2018-Jul-17 11:10N 29°44' W 095°01'0 0.0
2018-Jul-17 10:56N 29°44' W 095°01'0 0.0
2018-Jul-17 10:29N 29°44' W 095°01'0 0.0
2018-Jul-17 09:57N 29°44' W 095°01'2 3.5
2018-Jul-17 09:30N 29°44' W 095°03'3 6.2
2018-Jul-17 09:00N 29°46' W 095°06'0 0.6
2018-Jul-17 08:30N 29°46' W 095°06'2 3.5
2018-Jul-17 08:00N 29°46' W 095°04'3 5.4
2018-Jul-17 07:30N 29°44' W 095°02'1 1.2
2018-Jul-17 07:00N 29°44' W 095°01'0 0.0
2018-Jul-17 06:29N 29°44' W 095°01'0 0.0
2018-Jul-17 05:59N 29°44' W 095°01'0 0.0
2018-Jul-17 05:30N 29°44' W 095°01'0 0.0
2018-Jul-17 04:59N 29°44' W 095°01'0 0.0
2018-Jul-17 04:30N 29°44' W 095°01'0 0.0
2018-Jul-17 04:00N 29°44' W 095°01'0 0.0
2018-Jul-17 03:30N 29°44' W 095°01'0 0.0
2018-Jul-17 02:49N 29°44' W 095°01'1 0.3
2018-Jul-17 00:03N 29°44' W 095°02'3 1.9
2018-Jul-16 22:14N 29°46' W 095°05'0 0.4
2018-Jul-16 21:33N 29°46' W 095°05'0 5.0
2018-Jul-16 21:29N 29°46' W 095°05'0 0.0
2018-Jul-16 20:50N 29°46' W 095°05'2 5.9
2018-Jul-16 20:30N 29°44' W 095°03'2 0.6
2018-Jul-16 17:28N 29°44' W 095°01'1 0.4
2018-Jul-16 16:07N 29°43' W 095°01'1 0.2
2018-Jul-16 13:10N 29°44' W 095°01'0 0.0
2018-Jul-16 12:57N 29°44' W 095°01'0 0.0
2018-Jul-16 09:42N 29°44' W 095°01'1 5.0
2018-Jul-16 09:30N 29°44' W 095°03'4 7.0
2018-Jul-16 08:59N 29°46' W 095°06'0 0.9
2018-Jul-16 08:29N 29°46' W 095°06'2 4.4
2018-Jul-16 08:00N 29°45' W 095°04'2 3.9
2018-Jul-16 07:30N 29°44' W 095°02'1 0.3
2018-Jul-16 03:19N 29°44' W 095°01'0 0.2
2018-Jul-16 02:42N 29°44' W 095°01'0 0.0
2018-Jul-15 23:45N 29°44' W 095°01'0 0.0
2018-Jul-15 23:28N 29°44' W 095°01'0 0.0
2018-Jul-15 22:59N 29°44' W 095°01'0 0.0
2018-Jul-15 22:27N 29°44' W 095°01'1 3.2
2018-Jul-15 22:00N 29°44' W 095°03'4 5.8
2018-Jul-15 21:24N 29°46' W 095°06'0 0.0
2018-Jul-15 20:58N 29°46' W 095°06'2 5.1
2018-Jul-15 20:30N 29°45' W 095°04'2 0.7
2018-Jul-15 16:59N 29°44' W 095°01'0 0.0
2018-Jul-15 16:30N 29°44' W 095°01'0 0.0
2018-Jul-15 15:57N 29°44' W 095°01'0 0.0
2018-Jul-15 15:30N 29°44' W 095°01'0 0.0
2018-Jul-15 14:46N 29°44' W 095°01'0 0.0
2018-Jul-15 14:19N 29°44' W 095°01'0 0.0
2018-Jul-15 13:54N 29°44' W 095°01'0 0.0
2018-Jul-15 13:29N 29°44' W 095°01'0 0.0
2018-Jul-15 13:00N 29°44' W 095°01'0 0.0
2018-Jul-15 12:30N 29°44' W 095°01'0 0.0
2018-Jul-15 11:59N 29°44' W 095°01'0 0.0
2018-Jul-15 11:29N 29°44' W 095°01'0 0.0
2018-Jul-15 11:00N 29°44' W 095°01'0 0.0
2018-Jul-15 10:30N 29°44' W 095°01'0 0.0
2018-Jul-15 09:59N 29°44' W 095°01'2 2.7
2018-Jul-15 09:21N 29°44' W 095°03'3 3.3
2018-Jul-15 08:23N 29°46' W 095°06'1 3.8
2018-Jul-15 08:00N 29°46' W 095°04'2 4.6
2018-Jul-15 07:29N 29°44' W 095°03'1 1.5
2018-Jul-15 06:43N 29°44' W 095°01'1 2.3
2018-Jul-15 06:29N 29°43' W 095°01'0 0.5
2018-Jul-15 05:59N 29°43' W 095°01'1 0.9
2018-Jul-15 05:23N 29°44' W 095°01'0 0.0
2018-Jul-15 04:47N 29°44' W 095°01'0 0.0
2018-Jul-15 03:06N 29°44' W 095°01'0 0.0
2018-Jul-14 23:38N 29°44' W 095°01'1 5.4
2018-Jul-14 23:27N 29°44' W 095°02'4 1.6
2018-Jul-14 20:59N 29°46' W 095°06'3 5.5
2018-Jul-14 20:28N 29°44' W 095°04'2 0.7
2018-Jul-14 17:36N 29°44' W 095°01'0 0.2
2018-Jul-14 16:52N 29°44' W 095°01'0 0.1
2018-Jul-14 09:57N 29°44' W 095°02'3 6.6
2018-Jul-14 09:30N 29°46' W 095°04'1 2.8
2018-Jul-14 08:59N 29°46' W 095°06'3 6.4
2018-Jul-14 08:29N 29°44' W 095°03'2 0.1
2018-Jul-13 19:17N 29°44' W 095°01'1 1.0
2018-Jul-13 18:37N 29°44' W 095°02'1 5.3
2018-Jul-13 18:24N 29°44' W 095°03'2 0.8
2018-Jul-13 15:56N 29°46' W 095°05'2 5.4
2018-Jul-13 15:30N 29°44' W 095°03'0 0.1
2018-Jul-13 11:12N 29°44' W 095°03'2 6.5
2018-Jul-13 10:52N 29°46' W 095°05'1 3.0
2018-Jul-13 10:30N 29°46' W 095°06'0 0.4
2018-Jul-13 09:49N 29°46' W 095°06'1 1.1
2018-Jul-13 08:40N 29°46' W 095°05'1 5.3
2018-Jul-13 08:30N 29°46' W 095°05'3 1.2
2018-Jul-13 06:17N 29°44' W 095°08'1 3.9
2018-Jul-13 05:54N 29°45' W 095°06'2 3.8
2018-Jul-13 05:28N 29°46' W 095°05'2 4.0
2018-Jul-13 05:00N 29°44' W 095°03'0 0.0
2018-Jul-12 22:09N 29°44' W 095°03'3 3.7
2018-Jul-12 21:12N 29°46' W 095°06'2 5.8
2018-Jul-12 20:52N 29°45' W 095°04'3 0.4
2018-Jul-12 13:12N 29°44' W 095°01'0 0.2
2018-Jul-12 12:40N 29°44' W 095°01'0 0.1
2018-Jul-12 10:04N 29°44' W 095°02'1 6.8
2018-Jul-12 09:58N 29°44' W 095°02'3 6.3
2018-Jul-12 09:30N 29°46' W 095°05'1 1.4
2018-Jul-12 08:51N 29°46' W 095°06'1 1.3
2018-Jul-12 08:01N 29°45' W 095°06'0 5.8
2018-Jul-12 07:59N 29°45' W 095°06'1 0.4
2018-Jul-12 05:46N 29°44' W 095°07'1 1.0
2018-Jul-12 04:47N 29°44' W 095°08'0 0.7
2018-Jul-12 04:27N 29°44' W 095°08'2 3.4
2018-Jul-12 03:56N 29°45' W 095°06'3 4.9
2018-Jul-12 03:26N 29°47' W 095°04'3 0.5
2018-Jul-11 21:45N 29°45' W 095°06'1 0.2
2018-Jul-11 16:09N 29°44' W 095°08'0 2.4
2018-Jul-11 15:59N 29°44' W 095°07'2 3.6
2018-Jul-11 15:29N 29°45' W 095°06'1 2.7
2018-Jul-11 14:56N 29°47' W 095°05'1 1.1
2018-Jul-11 13:50N 29°47' W 095°04'0 0.0
2018-Jul-11 13:29N 29°47' W 095°04'2 3.0
2018-Jul-11 12:52N 29°46' W 095°05'2 6.8
2018-Jul-11 12:30N 29°44' W 095°03'1 0.3
2018-Jul-11 10:17N 29°44' W 095°02'2 6.7
2018-Jul-11 09:59N 29°45' W 095°04'2 1.9
2018-Jul-11 08:42N 29°46' W 095°06'0 0.9
2018-Jul-11 08:22N 29°46' W 095°06'2 5.7
2018-Jul-11 08:00N 29°45' W 095°04'2 5.1
2018-Jul-11 07:30N 29°44' W 095°01'0 0.0
2018-Jul-11 06:59N 29°44' W 095°01'0 0.1
2018-Jul-11 03:56N 29°44' W 095°01'0 0.4
2018-Jul-11 03:21N 29°43' W 095°01'0 0.2
2018-Jul-11 02:58N 29°43' W 095°01'3 6.3
2018-Jul-11 02:26N 29°46' W 095°04'2 4.5
2018-Jul-11 02:00N 29°47' W 095°04'2 0.6
2018-Jul-10 22:05N 29°46' W 095°06'0 0.1
2018-Jul-10 21:58N 29°46' W 095°06'0 0.0
2018-Jul-10 19:07N 29°46' W 095°06'2 6.3
2018-Jul-10 18:48N 29°45' W 095°04'2 6.8
2018-Jul-10 18:30N 29°44' W 095°02'1 0.8
2018-Jul-10 17:30N 29°44' W 095°01'0 0.5
2018-Jul-10 16:59N 29°44' W 095°01'0 0.0
2018-Jul-10 15:54N 29°44' W 095°01'0 0.0
2018-Jul-10 15:30N 29°44' W 095°01'0 0.0
2018-Jul-10 15:00N 29°44' W 095°01'0 0.0
2018-Jul-10 14:30N 29°44' W 095°01'0 0.0
2018-Jul-10 14:00N 29°44' W 095°01'0 0.0
2018-Jul-10 13:30N 29°44' W 095°01'0 0.1
2018-Jul-10 12:05N 29°44' W 095°01'1 0.2
2018-Jul-10 09:36N 29°44' W 095°02'1 7.4
2018-Jul-10 09:28N 29°44' W 095°03'3 6.6
2018-Jul-10 08:59N 29°46' W 095°06'0 0.5
2018-Jul-10 08:21N 29°46' W 095°06'2 6.6
2018-Jul-10 08:00N 29°45' W 095°04'  

Dump ship's entire track history